sensor_id;sensor_type;location;lat;lon;timestamp;temperature;humidity
34147;DHT22;20423;49.448;9.056;2022-08-02T00:00:51;18.90;99.90
34147;DHT22;20423;49.448;9.056;2022-08-02T00:03:45;18.80;99.90
34147;DHT22;20423;49.448;9.056;2022-08-02T00:06:24;18.70;99.90
34147;DHT22;20423;49.448;9.056;2022-08-02T00:08:50;18.60;99.90
34147;DHT22;20423;49.448;9.056;2022-08-02T00:11:16;18.60;99.90
34147;DHT22;20423;49.448;9.056;2022-08-02T00:13:42;18.40;99.90
34147;DHT22;20423;49.448;9.056;2022-08-02T00:16:07;18.30;99.90
34147;DHT22;20423;49.448;9.056;2022-08-02T00:18:33;18.20;99.90
34147;DHT22;20423;49.448;9.056;2022-08-02T00:20:59;18.20;99.90
34147;DHT22;20423;49.448;9.056;2022-08-02T00:23:25;18.10;99.90
34147;DHT22;20423;49.448;9.056;2022-08-02T00:25:51;18.10;99.90
34147;DHT22;20423;49.448;9.056;2022-08-02T00:28:16;18.00;99.90
34147;DHT22;20423;49.448;9.056;2022-08-02T00:30:42;18.00;99.90
34147;DHT22;20423;49.448;9.056;2022-08-02T00:33:08;17.90;99.90
34147;DHT22;20423;49.448;9.056;2022-08-02T00:35:34;17.90;99.90
34147;DHT22;20423;49.448;9.056;2022-08-02T00:38:01;17.90;99.90
34147;DHT22;20423;49.448;9.056;2022-08-02T00:40:27;17.80;99.90
34147;DHT22;20423;49.448;9.056;2022-08-02T00:43:01;17.80;99.90
34147;DHT22;20423;49.448;9.056;2022-08-02T00:45:30;17.80;99.90
34147;DHT22;20423;49.448;9.056;2022-08-02T00:47:56;17.80;99.90
34147;DHT22;20423;49.448;9.056;2022-08-02T00:50:26;17.80;99.90
34147;DHT22;20423;49.448;9.056;2022-08-02T00:52:53;17.80;99.90
34147;DHT22;20423;49.448;9.056;2022-08-02T00:55:19;17.80;99.90
34147;DHT22;20423;49.448;9.056;2022-08-02T00:57:46;17.90;99.90
34147;DHT22;20423;49.448;9.056;2022-08-02T01:00:13;17.90;99.90
34147;DHT22;20423;49.448;9.056;2022-08-02T01:02:40;17.90;99.90
34147;DHT22;20423;49.448;9.056;2022-08-02T01:05:06;17.90;99.90
34147;DHT22;20423;49.448;9.056;2022-08-02T01:07:34;17.90;99.90
34147;DHT22;20423;49.448;9.056;2022-08-02T01:10:00;17.80;99.90
34147;DHT22;20423;49.448;9.056;2022-08-02T01:12:27;17.80;99.90
34147;DHT22;20423;49.448;9.056;2022-08-02T01:14:57;17.80;99.90
34147;DHT22;20423;49.448;9.056;2022-08-02T01:30:37;17.40;99.90
34147;DHT22;20423;49.448;9.056;2022-08-02T01:33:05;17.30;99.90
34147;DHT22;20423;49.448;9.056;2022-08-02T01:35:37;17.40;99.90
34147;DHT22;20423;49.448;9.056;2022-08-02T01:38:17;17.40;99.90
34147;DHT22;20423;49.448;9.056;2022-08-02T01:40:46;17.50;99.90
34147;DHT22;20423;49.448;9.056;2022-08-02T01:43:14;17.50;99.90
34147;DHT22;20423;49.448;9.056;2022-08-02T01:45:47;17.50;99.90
34147;DHT22;20423;49.448;9.056;2022-08-02T01:48:15;17.60;99.90
34147;DHT22;20423;49.448;9.056;2022-08-02T01:50:41;17.70;99.90
34147;DHT22;20423;49.448;9.056;2022-08-02T01:53:09;17.80;99.90
34147;DHT22;20423;49.448;9.056;2022-08-02T01:55:47;17.90;99.90
34147;DHT22;20423;49.448;9.056;2022-08-02T01:58:17;18.00;99.90
34147;DHT22;20423;49.448;9.056;2022-08-02T02:00:45;17.90;99.90
34147;DHT22;20423;49.448;9.056;2022-08-02T02:03:13;18.00;99.90
34147;DHT22;20423;49.448;9.056;2022-08-02T02:05:55;18.00;99.90
34147;DHT22;20423;49.448;9.056;2022-08-02T02:08:40;18.10;99.90
34147;DHT22;20423;49.448;9.056;2022-08-02T02:11:08;18.10;99.90
34147;DHT22;20423;49.448;9.056;2022-08-02T02:13:36;18.20;99.90
34147;DHT22;20423;49.448;9.056;2022-08-02T02:16:03;18.20;99.90
34147;DHT22;20423;49.448;9.056;2022-08-02T02:18:40;18.10;99.90
34147;DHT22;20423;49.448;9.056;2022-08-02T02:21:08;18.10;99.90
34147;DHT22;20423;49.448;9.056;2022-08-02T02:23:34;18.00;99.90
34147;DHT22;20423;49.448;9.056;2022-08-02T02:26:03;18.00;99.90
34147;DHT22;20423;49.448;9.056;2022-08-02T02:28:36;17.90;99.90
34147;DHT22;20423;49.448;9.056;2022-08-02T02:31:09;17.80;99.90
34147;DHT22;20423;49.448;9.056;2022-08-02T02:33:40;17.70;99.90
34147;DHT22;20423;49.448;9.056;2022-08-02T02:38:46;17.80;99.90
34147;DHT22;20423;49.448;9.056;2022-08-02T02:41:13;17.80;99.90
34147;DHT22;20423;49.448;9.056;2022-08-02T02:43:40;17.80;99.90
34147;DHT22;20423;49.448;9.056;2022-08-02T02:46:09;17.70;99.90
34147;DHT22;20423;49.448;9.056;2022-08-02T02:48:35;17.70;99.90
34147;DHT22;20423;49.448;9.056;2022-08-02T02:51:05;17.70;99.90
34147;DHT22;20423;49.448;9.056;2022-08-02T02:53:34;17.70;99.90
34147;DHT22;20423;49.448;9.056;2022-08-02T02:56:01;17.60;99.90
34147;DHT22;20423;49.448;9.056;2022-08-02T02:58:27;17.60;99.90
34147;DHT22;20423;49.448;9.056;2022-08-02T03:00:54;17.70;99.90
34147;DHT22;20423;49.448;9.056;2022-08-02T03:03:39;17.60;99.90
34147;DHT22;20423;49.448;9.056;2022-08-02T03:06:05;17.50;99.90
34147;DHT22;20423;49.448;9.056;2022-08-02T03:08:30;17.50;99.90
34147;DHT22;20423;49.448;9.056;2022-08-02T03:10:56;17.40;99.90
34147;DHT22;20423;49.448;9.056;2022-08-02T03:13:22;17.50;99.90
34147;DHT22;20423;49.448;9.056;2022-08-02T03:15:51;17.50;99.90
34147;DHT22;20423;49.448;9.056;2022-08-02T03:18:42;17.50;99.90
34147;DHT22;20423;49.448;9.056;2022-08-02T03:21:12;17.50;99.90
34147;DHT22;20423;49.448;9.056;2022-08-02T03:23:39;17.50;99.90
34147;DHT22;20423;49.448;9.056;2022-08-02T03:26:07;17.50;99.90
34147;DHT22;20423;49.448;9.056;2022-08-02T03:28:34;17.50;99.90
34147;DHT22;20423;49.448;9.056;2022-08-02T03:31:00;17.40;99.90
34147;DHT22;20423;49.448;9.056;2022-08-02T03:33:27;17.40;99.90
34147;DHT22;20423;49.448;9.056;2022-08-02T03:36:02;17.40;99.90
34147;DHT22;20423;49.448;9.056;2022-08-02T03:38:29;17.30;99.90
34147;DHT22;20423;49.448;9.056;2022-08-02T03:40:58;17.30;99.90
34147;DHT22;20423;49.448;9.056;2022-08-02T03:43:26;17.30;99.90
34147;DHT22;20423;49.448;9.056;2022-08-02T03:45:53;17.30;99.90
34147;DHT22;20423;49.448;9.056;2022-08-02T03:48:19;17.30;99.90
34147;DHT22;20423;49.448;9.056;2022-08-02T03:50:49;17.30;99.90
34147;DHT22;20423;49.448;9.056;2022-08-02T03:53:16;17.30;99.90
34147;DHT22;20423;49.448;9.056;2022-08-02T03:55:43;17.30;99.90
34147;DHT22;20423;49.448;9.056;2022-08-02T03:58:16;17.20;99.90
34147;DHT22;20423;49.448;9.056;2022-08-02T04:00:42;17.10;99.90
34147;DHT22;20423;49.448;9.056;2022-08-02T04:03:08;17.10;99.90
34147;DHT22;20423;49.448;9.056;2022-08-02T04:05:43;17.00;99.90
34147;DHT22;20423;49.448;9.056;2022-08-02T04:08:09;17.00;99.90
34147;DHT22;20423;49.448;9.056;2022-08-02T04:10:35;17.00;99.90
34147;DHT22;20423;49.448;9.056;2022-08-02T04:13:22;17.00;99.90
34147;DHT22;20423;49.448;9.056;2022-08-02T04:15:50;16.90;99.90
34147;DHT22;20423;49.448;9.056;2022-08-02T04:18:19;16.80;99.90
34147;DHT22;20423;49.448;9.056;2022-08-02T04:20:48;16.90;99.90
34147;DHT22;20423;49.448;9.056;2022-08-02T04:23:14;16.80;99.90
34147;DHT22;20423;49.448;9.056;2022-08-02T04:25:42;16.90;99.90
34147;DHT22;20423;49.448;9.056;2022-08-02T04:28:09;16.90;99.90
34147;DHT22;20423;49.448;9.056;2022-08-02T04:30:54;17.00;99.90
34147;DHT22;20423;49.448;9.056;2022-08-02T04:33:20;17.10;99.90
34147;DHT22;20423;49.448;9.056;2022-08-02T04:35:46;17.20;99.90
34147;DHT22;20423;49.448;9.056;2022-08-02T04:38:13;17.20;99.90
34147;DHT22;20423;49.448;9.056;2022-08-02T04:40:40;17.30;99.90
34147;DHT22;20423;49.448;9.056;2022-08-02T04:43:14;17.40;99.90
34147;DHT22;20423;49.448;9.056;2022-08-02T04:45:39;17.50;99.90
34147;DHT22;20423;49.448;9.056;2022-08-02T04:48:05;17.50;99.90
34147;DHT22;20423;49.448;9.056;2022-08-02T04:50:31;17.60;99.90
34147;DHT22;20423;49.448;9.056;2022-08-02T04:52:57;17.60;99.90
34147;DHT22;20423;49.448;9.056;2022-08-02T04:55:23;17.70;99.90
34147;DHT22;20423;49.448;9.056;2022-08-02T04:57:53;17.70;99.90
34147;DHT22;20423;49.448;9.056;2022-08-02T05:00:26;17.80;99.90
34147;DHT22;20423;49.448;9.056;2022-08-02T05:02:52;17.90;99.90
34147;DHT22;20423;49.448;9.056;2022-08-02T05:05:18;17.90;99.90
34147;DHT22;20423;49.448;9.056;2022-08-02T05:07:44;17.80;99.90
34147;DHT22;20423;49.448;9.056;2022-08-02T05:10:10;17.80;99.90
34147;DHT22;20423;49.448;9.056;2022-08-02T05:12:39;17.80;99.90
34147;DHT22;20423;49.448;9.056;2022-08-02T05:15:06;17.70;99.90
34147;DHT22;20423;49.448;9.056;2022-08-02T05:17:32;17.70;99.90
34147;DHT22;20423;49.448;9.056;2022-08-02T05:19:57;17.60;99.90
34147;DHT22;20423;49.448;9.056;2022-08-02T05:22:23;17.60;99.90
34147;DHT22;20423;49.448;9.056;2022-08-02T05:24:49;17.60;99.90
34147;DHT22;20423;49.448;9.056;2022-08-02T05:27:14;17.70;99.90
34147;DHT22;20423;49.448;9.056;2022-08-02T05:29:40;17.70;99.90
34147;DHT22;20423;49.448;9.056;2022-08-02T05:32:06;17.80;99.90
34147;DHT22;20423;49.448;9.056;2022-08-02T05:34:32;17.90;99.90
34147;DHT22;20423;49.448;9.056;2022-08-02T05:36:58;18.00;99.90
34147;DHT22;20423;49.448;9.056;2022-08-02T05:39:23;18.20;99.90
34147;DHT22;20423;49.448;9.056;2022-08-02T05:41:49;18.40;99.90
34147;DHT22;20423;49.448;9.056;2022-08-02T05:44:15;18.70;99.90
34147;DHT22;20423;49.448;9.056;2022-08-02T05:46:41;18.90;99.90
34147;DHT22;20423;49.448;9.056;2022-08-02T05:49:06;19.20;99.90
34147;DHT22;20423;49.448;9.056;2022-08-02T05:51:37;19.40;99.90
34147;DHT22;20423;49.448;9.056;2022-08-02T06:00:08;19.80;99.90
34147;DHT22;20423;49.448;9.056;2022-08-02T06:05:19;19.80;99.90
34147;DHT22;20423;49.448;9.056;2022-08-02T06:07:47;19.80;99.90
34147;DHT22;20423;49.448;9.056;2022-08-02T06:10:41;19.70;99.90
34147;DHT22;20423;49.448;9.056;2022-08-02T06:13:10;19.80;99.90
34147;DHT22;20423;49.448;9.056;2022-08-02T06:15:40;19.80;99.90
34147;DHT22;20423;49.448;9.056;2022-08-02T06:18:07;19.80;99.90
34147;DHT22;20423;49.448;9.056;2022-08-02T06:20:34;19.90;99.90
34147;DHT22;20423;49.448;9.056;2022-08-02T06:23:05;20.00;99.90
34147;DHT22;20423;49.448;9.056;2022-08-02T06:25:36;20.00;99.90
34147;DHT22;20423;49.448;9.056;2022-08-02T06:28:04;20.10;99.90
34147;DHT22;20423;49.448;9.056;2022-08-02T06:30:31;20.10;99.90
34147;DHT22;20423;49.448;9.056;2022-08-02T06:32:58;20.20;99.90
34147;DHT22;20423;49.448;9.056;2022-08-02T06:35:28;20.20;99.90
34147;DHT22;20423;49.448;9.056;2022-08-02T06:37:59;20.20;99.90
34147;DHT22;20423;49.448;9.056;2022-08-02T06:41:04;20.20;99.90
34147;DHT22;20423;49.448;9.056;2022-08-02T06:43:51;20.40;99.90
34147;DHT22;20423;49.448;9.056;2022-08-02T06:46:18;20.50;99.90
34147;DHT22;20423;49.448;9.056;2022-08-02T06:48:45;20.70;99.90
34147;DHT22;20423;49.448;9.056;2022-08-02T06:54:33;21.00;99.90
34147;DHT22;20423;49.448;9.056;2022-08-02T06:57:00;21.10;99.90
34147;DHT22;20423;49.448;9.056;2022-08-02T07:02:37;21.30;99.90
34147;DHT22;20423;49.448;9.056;2022-08-02T07:05:05;21.40;99.90
34147;DHT22;20423;49.448;9.056;2022-08-02T07:07:31;21.60;99.90
34147;DHT22;20423;49.448;9.056;2022-08-02T07:09:58;21.70;99.90
34147;DHT22;20423;49.448;9.056;2022-08-02T07:12:24;21.80;99.90
34147;DHT22;20423;49.448;9.056;2022-08-02T07:14:50;21.80;99.90
34147;DHT22;20423;49.448;9.056;2022-08-02T07:17:16;21.80;99.90
34147;DHT22;20423;49.448;9.056;2022-08-02T07:19:48;21.80;99.90
34147;DHT22;20423;49.448;9.056;2022-08-02T07:22:14;21.70;99.90
34147;DHT22;20423;49.448;9.056;2022-08-02T07:24:43;21.80;99.90
34147;DHT22;20423;49.448;9.056;2022-08-02T07:27:08;21.70;99.90
34147;DHT22;20423;49.448;9.056;2022-08-02T07:29:34;21.50;99.90
34147;DHT22;20423;49.448;9.056;2022-08-02T07:32:00;21.50;99.90
34147;DHT22;20423;49.448;9.056;2022-08-02T07:34:25;21.40;99.90
34147;DHT22;20423;49.448;9.056;2022-08-02T07:36:51;21.40;99.90
34147;DHT22;20423;49.448;9.056;2022-08-02T07:39:17;21.20;99.90
34147;DHT22;20423;49.448;9.056;2022-08-02T07:41:42;21.20;99.90
34147;DHT22;20423;49.448;9.056;2022-08-02T07:44:09;21.20;99.90
34147;DHT22;20423;49.448;9.056;2022-08-02T07:46:35;21.30;99.90
34147;DHT22;20423;49.448;9.056;2022-08-02T07:49:00;21.40;99.90
34147;DHT22;20423;49.448;9.056;2022-08-02T07:55:14;21.50;99.90
34147;DHT22;20423;49.448;9.056;2022-08-02T07:58:11;21.60;99.90
34147;DHT22;20423;49.448;9.056;2022-08-02T08:00:37;21.70;99.90
34147;DHT22;20423;49.448;9.056;2022-08-02T08:03:03;21.70;99.90
34147;DHT22;20423;49.448;9.056;2022-08-02T08:05:28;21.90;99.90
34147;DHT22;20423;49.448;9.056;2022-08-02T08:07:54;21.90;99.90
34147;DHT22;20423;49.448;9.056;2022-08-02T08:10:20;22.00;99.90
34147;DHT22;20423;49.448;9.056;2022-08-02T08:12:45;22.20;99.90
34147;DHT22;20423;49.448;9.056;2022-08-02T08:15:11;22.40;99.90
34147;DHT22;20423;49.448;9.056;2022-08-02T08:17:37;23.00;99.90
34147;DHT22;20423;49.448;9.056;2022-08-02T08:20:03;24.40;99.90
34147;DHT22;20423;49.448;9.056;2022-08-02T08:22:29;25.20;99.90
34147;DHT22;20423;49.448;9.056;2022-08-02T08:24:55;26.20;99.60
34147;DHT22;20423;49.448;9.056;2022-08-02T08:27:21;27.50;97.10
34147;DHT22;20423;49.448;9.056;2022-08-02T08:29:48;28.90;94.40
34147;DHT22;20423;49.448;9.056;2022-08-02T08:32:14;29.70;92.90
34147;DHT22;20423;49.448;9.056;2022-08-02T08:34:40;30.50;88.40
34147;DHT22;20423;49.448;9.056;2022-08-02T08:37:05;30.80;82.70
34147;DHT22;20423;49.448;9.056;2022-08-02T08:39:31;30.80;79.90
34147;DHT22;20423;49.448;9.056;2022-08-02T08:41:57;30.50;78.30
34147;DHT22;20423;49.448;9.056;2022-08-02T08:44:23;30.40;78.20
34147;DHT22;20423;49.448;9.056;2022-08-02T08:46:49;30.70;77.40
34147;DHT22;20423;49.448;9.056;2022-08-02T08:49:30;30.70;76.90
34147;DHT22;20423;49.448;9.056;2022-08-02T08:52:02;30.80;76.40
34147;DHT22;20423;49.448;9.056;2022-08-02T08:54:29;31.30;76.20
34147;DHT22;20423;49.448;9.056;2022-08-02T08:56:56;31.10;77.60
34147;DHT22;20423;49.448;9.056;2022-08-02T09:03:09;32.10;73.20
34147;DHT22;20423;49.448;9.056;2022-08-02T09:05:39;32.70;70.70
34147;DHT22;20423;49.448;9.056;2022-08-02T09:08:06;32.10;70.00
34147;DHT22;20423;49.448;9.056;2022-08-02T09:10:45;31.90;69.30
34147;DHT22;20423;49.448;9.056;2022-08-02T09:15:51;32.00;67.10
34147;DHT22;20423;49.448;9.056;2022-08-02T09:18:17;32.20;66.50
34147;DHT22;20423;49.448;9.056;2022-08-02T09:23:18;32.30;66.30
34147;DHT22;20423;49.448;9.056;2022-08-02T09:25:58;32.40;66.60
34147;DHT22;20423;49.448;9.056;2022-08-02T09:28:29;32.70;66.70
34147;DHT22;20423;49.448;9.056;2022-08-02T09:31:08;32.70;68.70
34147;DHT22;20423;49.448;9.056;2022-08-02T09:33:35;32.80;67.80
34147;DHT22;20423;49.448;9.056;2022-08-02T09:36:11;33.00;66.70
34147;DHT22;20423;49.448;9.056;2022-08-02T09:38:50;33.20;64.00
34147;DHT22;20423;49.448;9.056;2022-08-02T09:41:22;33.70;63.60
34147;DHT22;20423;49.448;9.056;2022-08-02T09:43:52;34.50;61.40
34147;DHT22;20423;49.448;9.056;2022-08-02T09:46:20;34.50;61.20
34147;DHT22;20423;49.448;9.056;2022-08-02T09:49:09;33.20;61.10
34147;DHT22;20423;49.448;9.056;2022-08-02T09:51:48;33.50;61.70
34147;DHT22;20423;49.448;9.056;2022-08-02T09:54:26;33.60;62.40
34147;DHT22;20423;49.448;9.056;2022-08-02T09:56:58;34.30;62.20
34147;DHT22;20423;49.448;9.056;2022-08-02T09:59:24;33.70;61.50
34147;DHT22;20423;49.448;9.056;2022-08-02T10:01:52;33.60;60.80
34147;DHT22;20423;49.448;9.056;2022-08-02T10:04:20;33.50;62.20
34147;DHT22;20423;49.448;9.056;2022-08-02T10:06:48;33.20;61.80
34147;DHT22;20423;49.448;9.056;2022-08-02T10:09:14;32.00;62.70
34147;DHT22;20423;49.448;9.056;2022-08-02T10:11:40;31.70;65.10
34147;DHT22;20423;49.448;9.056;2022-08-02T10:14:08;31.60;65.90
34147;DHT22;20423;49.448;9.056;2022-08-02T10:17:09;30.90;67.10
34147;DHT22;20423;49.448;9.056;2022-08-02T10:19:35;30.20;67.70
34147;DHT22;20423;49.448;9.056;2022-08-02T10:22:04;30.00;69.20
34147;DHT22;20423;49.448;9.056;2022-08-02T10:24:32;29.90;69.00
34147;DHT22;20423;49.448;9.056;2022-08-02T10:27:02;29.10;70.20
34147;DHT22;20423;49.448;9.056;2022-08-02T10:29:35;28.80;71.00
34147;DHT22;20423;49.448;9.056;2022-08-02T10:32:15;28.70;72.30
34147;DHT22;20423;49.448;9.056;2022-08-02T10:34:46;28.30;73.10
34147;DHT22;20423;49.448;9.056;2022-08-02T10:37:13;28.60;70.80
34147;DHT22;20423;49.448;9.056;2022-08-02T10:39:41;29.10;70.10
34147;DHT22;20423;49.448;9.056;2022-08-02T10:42:08;30.30;68.20
34147;DHT22;20423;49.448;9.056;2022-08-02T10:44:35;31.10;67.10
34147;DHT22;20423;49.448;9.056;2022-08-02T10:49:58;32.20;64.40
34147;DHT22;20423;49.448;9.056;2022-08-02T10:52:25;32.20;63.30
34147;DHT22;20423;49.448;9.056;2022-08-02T10:55:10;31.60;63.60
34147;DHT22;20423;49.448;9.056;2022-08-02T10:57:36;31.30;63.80
34147;DHT22;20423;49.448;9.056;2022-08-02T11:02:48;31.90;63.10
34147;DHT22;20423;49.448;9.056;2022-08-02T11:05:31;32.00;62.00
34147;DHT22;20423;49.448;9.056;2022-08-02T11:07:57;32.40;62.10
34147;DHT22;20423;49.448;9.056;2022-08-02T11:13:00;31.80;61.00
34147;DHT22;20423;49.448;9.056;2022-08-02T11:15:26;30.90;62.80
34147;DHT22;20423;49.448;9.056;2022-08-02T11:17:53;30.80;62.60
34147;DHT22;20423;49.448;9.056;2022-08-02T11:20:21;30.30;64.80
34147;DHT22;20423;49.448;9.056;2022-08-02T11:22:48;29.70;65.60
34147;DHT22;20423;49.448;9.056;2022-08-02T11:27:59;28.60;66.70
34147;DHT22;20423;49.448;9.056;2022-08-02T11:30:32;27.80;69.60
34147;DHT22;20423;49.448;9.056;2022-08-02T11:32:59;27.30;70.10
34147;DHT22;20423;49.448;9.056;2022-08-02T11:39:14;26.60;71.40
34147;DHT22;20423;49.448;9.056;2022-08-02T11:41:41;26.90;73.70
34147;DHT22;20423;49.448;9.056;2022-08-02T11:44:07;27.30;70.90
34147;DHT22;20423;49.448;9.056;2022-08-02T11:46:32;27.70;70.20
34147;DHT22;20423;49.448;9.056;2022-08-02T11:49:14;28.90;68.20
34147;DHT22;20423;49.448;9.056;2022-08-02T11:54:26;29.40;68.10
34147;DHT22;20423;49.448;9.056;2022-08-02T11:56:52;29.00;67.30
34147;DHT22;20423;49.448;9.056;2022-08-02T11:59:26;28.40;67.80
34147;DHT22;20423;49.448;9.056;2022-08-02T12:01:55;28.70;68.60
34147;DHT22;20423;49.448;9.056;2022-08-02T12:04:21;29.80;67.80
34147;DHT22;20423;49.448;9.056;2022-08-02T12:06:55;30.40;65.60
34147;DHT22;20423;49.448;9.056;2022-08-02T12:09:22;30.30;65.50
34147;DHT22;20423;49.448;9.056;2022-08-02T12:12:01;29.60;66.00
34147;DHT22;20423;49.448;9.056;2022-08-02T12:14:29;28.70;67.80
34147;DHT22;20423;49.448;9.056;2022-08-02T12:16:56;28.00;68.40
34147;DHT22;20423;49.448;9.056;2022-08-02T12:19:42;27.80;69.50
34147;DHT22;20423;49.448;9.056;2022-08-02T12:22:15;27.90;71.60
34147;DHT22;20423;49.448;9.056;2022-08-02T12:24:46;27.90;69.00
34147;DHT22;20423;49.448;9.056;2022-08-02T12:27:33;27.70;68.80
34147;DHT22;20423;49.448;9.056;2022-08-02T12:32:29;27.70;69.90
34147;DHT22;20423;49.448;9.056;2022-08-02T12:35:14;27.90;70.00
34147;DHT22;20423;49.448;9.056;2022-08-02T12:37:43;27.90;69.30
34147;DHT22;20423;49.448;9.056;2022-08-02T12:42:47;29.60;67.50
34147;DHT22;20423;49.448;9.056;2022-08-02T12:45:13;30.10;67.00
34147;DHT22;20423;49.448;9.056;2022-08-02T12:47:51;30.90;65.50
34147;DHT22;20423;49.448;9.056;2022-08-02T12:50:26;31.20;65.10
34147;DHT22;20423;49.448;9.056;2022-08-02T12:53:13;31.60;63.60
34147;DHT22;20423;49.448;9.056;2022-08-02T12:55:53;31.70;63.60
34147;DHT22;20423;49.448;9.056;2022-08-02T12:58:19;32.30;61.50
34147;DHT22;20423;49.448;9.056;2022-08-02T13:00:57;32.30;62.50
34147;DHT22;20423;49.448;9.056;2022-08-02T13:03:44;31.90;62.20
34147;DHT22;20423;49.448;9.056;2022-08-02T13:06:10;31.90;62.10
34147;DHT22;20423;49.448;9.056;2022-08-02T13:08:36;31.70;60.90
34147;DHT22;20423;49.448;9.056;2022-08-02T13:11:02;31.10;62.50
34147;DHT22;20423;49.448;9.056;2022-08-02T13:13:28;30.40;61.60
34147;DHT22;20423;49.448;9.056;2022-08-02T13:16:00;30.20;63.70
34147;DHT22;20423;49.448;9.056;2022-08-02T13:18:25;29.90;63.10
34147;DHT22;20423;49.448;9.056;2022-08-02T13:20:52;29.50;66.10
34147;DHT22;20423;49.448;9.056;2022-08-02T13:23:19;29.40;65.00
34147;DHT22;20423;49.448;9.056;2022-08-02T13:25:44;30.20;64.90
34147;DHT22;20423;49.448;9.056;2022-08-02T13:28:10;30.50;64.00
34147;DHT22;20423;49.448;9.056;2022-08-02T13:30:36;31.40;62.40
34147;DHT22;20423;49.448;9.056;2022-08-02T13:33:02;31.70;60.80
34147;DHT22;20423;49.448;9.056;2022-08-02T13:35:28;31.80;61.30
34147;DHT22;20423;49.448;9.056;2022-08-02T13:37:54;32.30;60.00
34147;DHT22;20423;49.448;9.056;2022-08-02T13:40:20;31.80;60.80
34147;DHT22;20423;49.448;9.056;2022-08-02T13:42:46;31.30;59.80
34147;DHT22;20423;49.448;9.056;2022-08-02T13:45:12;31.00;60.50
34147;DHT22;20423;49.448;9.056;2022-08-02T13:47:38;31.40;61.60
34147;DHT22;20423;49.448;9.056;2022-08-02T13:50:05;31.70;61.10
34147;DHT22;20423;49.448;9.056;2022-08-02T13:52:31;32.10;60.60
34147;DHT22;20423;49.448;9.056;2022-08-02T13:54:57;32.10;60.10
34147;DHT22;20423;49.448;9.056;2022-08-02T13:57:22;32.00;59.80
34147;DHT22;20423;49.448;9.056;2022-08-02T13:59:48;31.80;59.20
34147;DHT22;20423;49.448;9.056;2022-08-02T14:02:14;30.90;60.80
34147;DHT22;20423;49.448;9.056;2022-08-02T14:04:40;30.60;62.00
34147;DHT22;20423;49.448;9.056;2022-08-02T14:07:06;30.50;61.10
34147;DHT22;20423;49.448;9.056;2022-08-02T14:09:31;30.70;61.90
34147;DHT22;20423;49.448;9.056;2022-08-02T14:12:06;31.10;61.70
34147;DHT22;20423;49.448;9.056;2022-08-02T14:14:34;30.90;61.10
34147;DHT22;20423;49.448;9.056;2022-08-02T14:16:59;30.40;62.10
34147;DHT22;20423;49.448;9.056;2022-08-02T14:19:25;30.30;62.80
34147;DHT22;20423;49.448;9.056;2022-08-02T14:21:51;30.30;62.60
34147;DHT22;20423;49.448;9.056;2022-08-02T14:24:20;30.50;60.50
34147;DHT22;20423;49.448;9.056;2022-08-02T14:26:47;30.20;62.40
34147;DHT22;20423;49.448;9.056;2022-08-02T14:29:14;30.00;62.40
34147;DHT22;20423;49.448;9.056;2022-08-02T14:31:41;30.10;62.70
34147;DHT22;20423;49.448;9.056;2022-08-02T14:34:06;29.70;62.30
34147;DHT22;20423;49.448;9.056;2022-08-02T14:36:32;29.30;63.50
34147;DHT22;20423;49.448;9.056;2022-08-02T14:38:58;29.10;63.20
34147;DHT22;20423;49.448;9.056;2022-08-02T14:41:49;29.00;63.50
34147;DHT22;20423;49.448;9.056;2022-08-02T14:44:14;29.10;63.20
34147;DHT22;20423;49.448;9.056;2022-08-02T14:46:40;29.00;63.60
34147;DHT22;20423;49.448;9.056;2022-08-02T14:49:08;29.10;64.40
34147;DHT22;20423;49.448;9.056;2022-08-02T14:51:36;29.20;62.70
34147;DHT22;20423;49.448;9.056;2022-08-02T14:54:06;29.20;62.10
34147;DHT22;20423;49.448;9.056;2022-08-02T14:56:39;29.30;64.40
34147;DHT22;20423;49.448;9.056;2022-08-02T14:59:04;29.40;62.20
34147;DHT22;20423;49.448;9.056;2022-08-02T15:01:30;29.90;61.90
34147;DHT22;20423;49.448;9.056;2022-08-02T15:07:12;29.70;60.30
34147;DHT22;20423;49.448;9.056;2022-08-02T15:09:38;29.80;60.90
34147;DHT22;20423;49.448;9.056;2022-08-02T15:12:04;30.10;60.90
34147;DHT22;20423;49.448;9.056;2022-08-02T15:14:29;30.40;61.60
34147;DHT22;20423;49.448;9.056;2022-08-02T15:16:55;31.00;59.50
34147;DHT22;20423;49.448;9.056;2022-08-02T15:19:21;31.40;58.60
34147;DHT22;20423;49.448;9.056;2022-08-02T15:21:47;32.00;58.20
34147;DHT22;20423;49.448;9.056;2022-08-02T15:24:12;32.10;57.90
34147;DHT22;20423;49.448;9.056;2022-08-02T15:26:38;32.30;56.90
34147;DHT22;20423;49.448;9.056;2022-08-02T15:29:04;32.60;57.40
34147;DHT22;20423;49.448;9.056;2022-08-02T15:31:29;32.50;57.10
34147;DHT22;20423;49.448;9.056;2022-08-02T15:33:55;32.90;57.40
34147;DHT22;20423;49.448;9.056;2022-08-02T15:36:21;33.70;55.60
34147;DHT22;20423;49.448;9.056;2022-08-02T15:38:47;34.30;54.80
34147;DHT22;20423;49.448;9.056;2022-08-02T15:41:13;34.50;54.90
34147;DHT22;20423;49.448;9.056;2022-08-02T15:43:38;34.00;54.20
34147;DHT22;20423;49.448;9.056;2022-08-02T15:46:04;33.90;54.60
34147;DHT22;20423;49.448;9.056;2022-08-02T15:48:30;34.00;55.10
34147;DHT22;20423;49.448;9.056;2022-08-02T15:50:56;34.10;54.60
34147;DHT22;20423;49.448;9.056;2022-08-02T15:53:22;34.50;54.30
34147;DHT22;20423;49.448;9.056;2022-08-02T15:55:48;34.10;54.10
34147;DHT22;20423;49.448;9.056;2022-08-02T15:58:15;33.20;54.70
34147;DHT22;20423;49.448;9.056;2022-08-02T16:00:41;32.80;54.70
34147;DHT22;20423;49.448;9.056;2022-08-02T16:03:06;32.50;55.60
34147;DHT22;20423;49.448;9.056;2022-08-02T16:05:32;32.10;55.60
34147;DHT22;20423;49.448;9.056;2022-08-02T16:07:58;32.50;54.90
34147;DHT22;20423;49.448;9.056;2022-08-02T16:10:23;32.80;55.90
34147;DHT22;20423;49.448;9.056;2022-08-02T16:12:49;32.70;55.00
34147;DHT22;20423;49.448;9.056;2022-08-02T16:15:15;32.70;54.70
34147;DHT22;20423;49.448;9.056;2022-08-02T16:17:41;32.90;54.40
34147;DHT22;20423;49.448;9.056;2022-08-02T16:20:07;32.70;54.90
34147;DHT22;20423;49.448;9.056;2022-08-02T16:22:33;32.30;54.80
34147;DHT22;20423;49.448;9.056;2022-08-02T16:24:58;32.00;55.80
34147;DHT22;20423;49.448;9.056;2022-08-02T16:27:24;31.50;55.70
34147;DHT22;20423;49.448;9.056;2022-08-02T16:29:50;31.30;56.10
34147;DHT22;20423;49.448;9.056;2022-08-02T16:32:16;31.60;56.30
34147;DHT22;20423;49.448;9.056;2022-08-02T16:34:42;31.80;57.00
34147;DHT22;20423;49.448;9.056;2022-08-02T16:37:07;32.10;56.60
34147;DHT22;20423;49.448;9.056;2022-08-02T16:39:33;32.10;55.40
34147;DHT22;20423;49.448;9.056;2022-08-02T16:42:00;32.20;56.90
34147;DHT22;20423;49.448;9.056;2022-08-02T16:44:26;31.80;55.90
34147;DHT22;20423;49.448;9.056;2022-08-02T16:46:53;30.90;56.80
34147;DHT22;20423;49.448;9.056;2022-08-02T16:49:19;30.70;57.60